Time;durP1;ratioP1;P1;durP2;ratioP2;P2;SDS_P1;SDS_P2;PMS_P1;PMS_P2;Temp;Humidity;BMP_temperature;BMP_pressure;BME280_temperature;BME280_humidity;BME280_pressure;Samples;Min_cycle;Max_cycle;Signal;HPM_P1;HPM_P2
2023/01/10 00:01:55;;;;;;;1.45;0.40;;;;;;;6.86;83.32;101311.44;5051924;27;99899;-30
2023/01/10 00:04:21;;;;;;;7.18;0.88;;;;;;;6.88;82.98;101320.34;5052149;27;96747;-29
2023/01/10 00:06:46;;;;;;;0.38;0.30;;;;;;;6.91;82.99;101319.34;5052170;27;97906;-31
2023/01/10 00:09:11;;;;;;;4.22;0.57;;;;;;;6.95;83.11;101326.38;5051493;27;113706;-29
2023/01/10 00:14:20;;;;;;;1.23;0.63;;;;;;;6.97;83.09;101332.59;5050951;27;97071;-29
2023/01/10 00:16:46;;;;;;;0.70;0.40;;;;;;;6.95;83.11;101321.88;5052009;27;97275;-29
2023/01/10 00:19:11;;;;;;;1.00;0.40;;;;;;;6.96;83.19;101331.72;5052679;27;97281;-30
2023/01/10 00:21:38;;;;;;;0.52;0.15;;;;;;;7.00;83.57;101343.22;5051590;27;96697;-29
2023/01/10 00:24:19;;;;;;;1.10;0.52;;;;;;;6.96;83.42;101333.50;5050377;27;96578;-29
2023/01/10 00:26:49;;;;;;;0.80;0.47;;;;;;;6.99;83.32;101346.88;5049484;27;98933;-29
2023/01/10 00:29:19;;;;;;;0.80;0.45;;;;;;;6.99;83.19;101353.13;5050302;27;100756;-29
2023/01/10 00:31:44;;;;;;;0.73;0.47;;;;;;;6.99;83.23;101357.66;5050328;27;96620;-30
2023/01/10 00:34:09;;;;;;;1.88;0.57;;;;;;;7.01;83.13;101367.41;5051823;27;96806;-30
2023/01/10 00:36:35;;;;;;;1.15;0.30;;;;;;;7.02;83.15;101371.00;5051813;27;97728;-30
2023/01/10 00:39:01;;;;;;;0.38;0.22;;;;;;;6.98;83.40;101367.56;5055167;27;97794;-30
2023/01/10 00:44:15;;;;;;;3.55;0.35;;;;;;;7.06;83.13;101377.16;5025746;27;96748;-29
2023/01/10 00:46:40;;;;;;;0.60;0.15;;;;;;;7.05;82.97;101383.47;5054976;27;97832;-29
2023/01/10 00:49:07;;;;;;;3.53;0.43;;;;;;;7.07;82.91;101387.84;5054939;27;99193;-29
2023/01/10 00:51:32;;;;;;;2.80;0.93;;;;;;;7.11;82.99;101389.50;5053251;27;97109;-29
2023/01/10 00:53:57;;;;;;;0.10;0.10;;;;;;;7.12;83.05;101388.53;5055248;27;96824;-29
2023/01/10 00:56:23;;;;;;;3.17;0.77;;;;;;;7.15;83.00;101390.25;5055030;27;97912;-29
2023/01/10 00:58:48;;;;;;;6.15;0.95;;;;;;;7.13;82.92;101382.25;5054672;27;103096;-29
2023/01/10 01:01:13;;;;;;;1.00;0.25;;;;;;;7.16;82.75;101386.63;5054908;27;102775;-29
2023/01/10 01:03:38;;;;;;;3.90;0.60;;;;;;;7.17;82.86;101389.25;5054655;27;106222;-29
2023/01/10 01:06:05;;;;;;;1.00;0.32;;;;;;;7.18;82.75;101384.75;5054580;27;105901;-29
2023/01/10 01:08:30;;;;;;;3.83;0.80;;;;;;;7.19;82.80;101391.88;5053425;27;102505;-30
2023/01/10 01:10:56;;;;;;;1.27;0.60;;;;;;;7.20;83.17;101401.75;5054677;27;96584;-29
2023/01/10 01:13:22;;;;;;;5.85;0.38;;;;;;;7.20;82.95;101397.22;5054977;27;96782;-29
2023/01/10 01:15:48;;;;;;;0.55;0.28;;;;;;;7.21;83.06;101395.41;5052495;27;101227;-30
2023/01/10 01:18:19;;;;;;;1.52;0.38;;;;;;;7.24;82.89;101406.06;5054505;27;97322;-29
2023/01/10 01:20:46;;;;;;;4.07;0.60;;;;;;;7.21;83.01;101401.66;5054561;27;96590;-29
2023/01/10 01:23:15;;;;;;;1.30;0.50;;;;;;;7.23;82.88;101415.09;5052710;27;96805;-29
2023/01/10 01:25:40;;;;;;;9.75;0.88;;;;;;;7.22;83.07;101408.81;5052986;27;100865;-29
2023/01/10 01:28:05;;;;;;;2.70;0.82;;;;;;;7.23;82.91;101393.53;5053861;27;97436;-29
2023/01/10 01:30:31;;;;;;;1.90;0.43;;;;;;;7.26;82.92;101411.41;5054290;27;96490;-30
2023/01/10 01:32:56;;;;;;;0.95;0.55;;;;;;;7.27;83.03;101415.81;5054710;27;96855;-29
2023/01/10 01:35:22;;;;;;;11.05;0.80;;;;;;;7.28;82.71;101431.06;5054047;27;99503;-31
2023/01/10 01:37:47;;;;;;;0.82;0.47;;;;;;;7.27;82.81;101427.50;5054282;27;97828;-30
2023/01/10 01:40:15;;;;;;;2.10;0.57;;;;;;;7.27;82.57;101432.91;5053505;27;103581;-29
2023/01/10 01:42:41;;;;;;;1.25;0.68;;;;;;;7.28;82.75;101431.06;5052573;27;97340;-29
2023/01/10 01:45:06;;;;;;;1.42;0.50;;;;;;;7.28;82.78;101431.94;5052545;27;101366;-29
2023/01/10 01:47:34;;;;;;;0.52;0.40;;;;;;;7.28;82.69;101440.03;5053480;27;98820;-29
2023/01/10 01:49:59;;;;;;;7.57;0.73;;;;;;;7.27;82.89;101440.97;5052749;27;96553;-29
2023/01/10 01:52:33;;;;;;;4.97;0.45;;;;;;;7.28;82.84;101447.25;5054317;27;96719;-30
2023/01/10 01:55:02;;;;;;;1.13;0.57;;;;;;;7.26;83.14;101447.28;5052570;27;100867;-29
2023/01/10 01:57:30;;;;;;;0.95;0.50;;;;;;;7.26;82.70;101458.06;5054030;27;97780;-29
2023/01/10 01:59:55;;;;;;;2.25;0.63;;;;;;;7.26;82.84;101455.38;5052632;27;96644;-29
2023/01/10 02:02:30;;;;;;;2.63;1.15;;;;;;;7.25;82.79;101456.31;5053703;27;96906;-29
2023/01/10 02:05:03;;;;;;;4.20;0.80;;;;;;;7.30;82.88;101464.25;5051968;27;100865;-29
2023/01/10 02:07:32;;;;;;;1.35;0.57;;;;;;;7.31;82.62;101465.97;5052214;27;102165;-29
2023/01/10 02:10:02;;;;;;;4.47;0.45;;;;;;;7.32;82.18;101465.94;5052160;27;96661;-29
2023/01/10 02:12:30;;;;;;;0.82;0.17;;;;;;;7.31;82.71;101465.97;5053809;27;96694;-30
2023/01/10 02:14:57;;;;;;;0.50;0.25;;;;;;;7.33;82.79;101469.50;5052258;27;100871;-29
2023/01/10 02:17:22;;;;;;;1.60;0.70;;;;;;;7.31;82.75;101460.59;5053562;27;97518;-30
2023/01/10 02:19:53;;;;;;;7.63;1.02;;;;;;;7.32;82.92;101460.53;5053846;27;96483;-29
2023/01/10 02:22:25;;;;;;;1.95;0.70;;;;;;;7.34;83.31;101460.47;5053651;27;96761;-29
2023/01/10 02:24:50;;;;;;;0.53;0.37;;;;;;;7.33;83.24;101464.97;5053510;27;98006;-30
2023/01/10 02:27:25;;;;;;;3.78;0.47;;;;;;;7.32;83.03;101462.38;5053109;27;97346;-30
2023/01/10 02:30:12;;;;;;;3.08;0.50;;;;;;;7.33;83.04;101461.41;5052894;27;96627;-29
2023/01/10 02:32:46;;;;;;;8.50;1.00;;;;;;;7.30;83.07;101458.84;5053523;27;96798;-30
2023/01/10 02:35:22;;;;;;;3.63;1.00;;;;;;;7.32;83.12;101468.63;5051925;27;100730;-30
2023/01/10 02:38:09;;;;;;;3.83;0.85;;;;;;;7.31;82.84;101474.06;5051803;27;98927;-29
2023/01/10 02:41:06;;;;;;;7.93;0.63;;;;;;;7.33;82.86;101485.66;5053242;27;96586;-30
2023/01/10 02:43:38;;;;;;;2.95;0.28;;;;;;;7.31;83.04;101488.41;5053160;27;96775;-29
2023/01/10 02:46:24;;;;;;;1.15;0.40;;;;;;;7.30;82.96;101492.06;5051683;27;101255;-30
2023/01/10 02:48:51;;;;;;;4.15;0.65;;;;;;;7.30;82.86;101494.75;5053470;27;99420;-29
2023/01/10 02:51:19;;;;;;;0.88;0.30;;;;;;;7.28;82.85;101490.34;5051701;27;96614;-29
2023/01/10 02:53:54;;;;;;;2.35;0.55;;;;;;;7.27;82.97;101486.78;5051980;27;96866;-29
2023/01/10 02:56:40;;;;;;;1.35;0.43;;;;;;;7.29;83.15;101501.06;5051110;27;100985;-29
2023/01/10 02:59:41;;;;;;;1.23;0.45;;;;;;;7.28;82.93;101499.31;5052869;27;97893;-29
2023/01/10 03:02:36;;;;;;;1.40;0.60;;;;;;;7.22;83.03;101492.34;5041391;27;97088;-29
2023/01/10 03:05:13;;;;;;;0.50;0.28;;;;;;;7.28;83.21;101499.31;5052249;27;96783;-30
2023/01/10 03:07:59;;;;;;;0.90;0.47;;;;;;;7.29;83.21;101497.50;5051300;27;99022;-29
2023/01/10 03:10:31;;;;;;;1.75;0.20;;;;;;;7.23;83.48;101496.78;5052739;27;97258;-29
2023/01/10 03:12:59;;;;;;;7.38;0.73;;;;;;;7.27;83.71;101500.25;5051591;27;96544;-29
2023/01/10 03:15:31;;;;;;;1.85;0.85;;;;;;;7.22;83.70;101499.53;5053251;27;96765;-29
2023/01/10 03:18:01;;;;;;;3.60;1.33;;;;;;;7.24;83.70;101508.44;5051412;27;100805;-30
2023/01/10 03:20:31;;;;;;;0.55;0.40;;;;;;;7.23;83.32;101501.31;5052524;27;99125;-29
2023/01/10 03:22:57;;;;;;;6.00;1.02;;;;;;;7.24;83.71;101505.75;5050285;27;97031;-30
2023/01/10 03:25:27;;;;;;;1.58;0.50;;;;;;;7.25;83.44;101514.72;5052788;27;96839;-30
2023/01/10 03:28:09;;;;;;;4.05;0.60;;;;;;;7.24;83.41;101513.81;5050513;27;101139;-29
2023/01/10 03:30:40;;;;;;;3.42;0.73;;;;;;;7.25;83.77;101512.03;5051122;27;100735;-30
2023/01/10 03:33:07;;;;;;;0.10;0.10;;;;;;;7.24;83.92;101521.91;5051213;27;96735;-30
2023/01/10 03:36:03;;;;;;;2.13;0.65;;;;;;;7.24;83.47;101519.22;5051293;27;96927;-30
2023/01/10 03:38:44;;;;;;;4.65;0.60;;;;;;;7.21;83.30;101532.81;5051118;27;100806;-30
2023/01/10 03:41:15;;;;;;;5.20;0.40;;;;;;;7.22;83.59;101540.84;5052957;27;97942;-29
2023/01/10 03:47:04;;;;;;;3.72;0.77;;;;;;;7.14;83.58;101532.16;5052583;27;96558;-29
2023/01/10 03:49:32;;;;;;;8.27;0.63;;;;;;;7.11;83.62;101543.03;5050272;27;100944;-30
2023/01/10 03:52:00;;;;;;;3.72;0.95;;;;;;;7.11;83.75;101545.75;5052252;27;97313;-30
2023/01/10 03:54:26;;;;;;;7.53;0.95;;;;;;;7.11;83.66;101553.81;5050969;27;96517;-29
2023/01/10 03:56:51;;;;;;;3.40;0.75;;;;;;;7.14;83.76;101555.53;5052389;27;96744;-29
2023/01/10 03:59:20;;;;;;;2.97;0.52;;;;;;;7.16;83.79;101562.63;5052317;27;97960;-29
2023/01/10 04:01:46;;;;;;;1.05;0.50;;;;;;;7.14;83.57;101561.78;5051956;27;97375;-29
2023/01/10 04:04:11;;;;;;;0.98;0.50;;;;;;;7.16;83.62;101564.44;5052192;27;96620;-30
2023/01/10 04:06:37;;;;;;;6.25;0.85;;;;;;;7.19;83.84;101561.63;5052546;27;96849;-30
2023/01/10 04:09:02;;;;;;;4.28;0.88;;;;;;;7.18;83.76;101547.28;5050592;27;100737;-29
2023/01/10 04:11:28;;;;;;;0.77;0.38;;;;;;;7.21;83.85;101559.75;5053488;27;97877;-29
2023/01/10 04:13:53;;;;;;;1.13;0.30;;;;;;;7.19;83.63;101559.78;5055273;27;96530;-29
2023/01/10 04:16:19;;;;;;;0.95;0.28;;;;;;;7.18;83.67;101557.19;5055985;27;96833;-29
2023/01/10 04:18:44;;;;;;;5.65;0.90;;;;;;;7.16;83.88;101562.63;5055421;27;98834;-30
2023/01/10 04:21:10;;;;;;;0.68;0.22;;;;;;;7.13;83.70;101564.56;5055506;27;97285;-29
2023/01/10 04:23:35;;;;;;;2.03;0.47;;;;;;;7.12;83.80;101582.50;5055514;27;96489;-30
2023/01/10 04:26:00;;;;;;;1.20;0.57;;;;;;;7.09;84.08;101596.09;5055310;27;96797;-29
2023/01/10 04:28:26;;;;;;;2.42;0.85;;;;;;;7.05;84.21;101598.94;5055398;27;97856;-29
2023/01/10 04:30:51;;;;;;;2.20;0.63;;;;;;;7.04;84.00;101597.19;5055854;27;97809;-29
2023/01/10 04:33:16;;;;;;;0.70;0.40;;;;;;;7.03;84.07;101572.06;5055257;27;96476;-30
2023/01/10 04:35:49;;;;;;;3.70;1.27;;;;;;;6.99;84.19;101575.81;5055283;27;96716;-29
2023/01/10 04:38:15;;;;;;;0.43;0.25;;;;;;;6.98;84.22;101566.84;5053315;27;100853;-29
2023/01/10 04:40:41;;;;;;;2.78;0.95;;;;;;;6.95;84.31;101575.03;5055166;27;97246;-29
2023/01/10 04:43:07;;;;;;;1.63;0.45;;;;;;;6.90;84.55;101578.81;5053546;27;96687;-29
2023/01/10 04:45:32;;;;;;;4.47;0.70;;;;;;;6.87;84.50;101581.63;5053814;27;96868;-29
2023/01/10 04:47:59;;;;;;;6.68;0.88;;;;;;;6.87;84.54;101593.28;5055232;27;101709;-29
2023/01/10 04:50:25;;;;;;;4.45;0.75;;;;;;;6.85;84.92;101595.13;5054767;27;97851;-29
2023/01/10 04:52:50;;;;;;;2.33;0.77;;;;;;;6.78;84.76;101604.34;5053704;27;96741;-29
2023/01/10 04:55:16;;;;;;;4.32;0.82;;;;;;;6.77;84.98;101613.38;5054155;27;96899;-30
2023/01/10 04:57:41;;;;;;;3.25;0.45;;;;;;;6.77;84.89;101616.06;5054882;27;101748;-29
2023/01/10 05:00:08;;;;;;;1.23;0.60;;;;;;;6.77;85.08;101614.25;5054945;27;97802;-30
2023/01/10 05:02:34;;;;;;;4.47;0.75;;;;;;;6.77;85.08;101622.31;5053055;27;98023;-29
2023/01/10 05:04:59;;;;;;;1.65;0.52;;;;;;;6.76;85.14;101634.00;5054866;27;96800;-30
2023/01/10 05:07:24;;;;;;;1.05;0.52;;;;;;;6.72;85.25;101616.22;5054820;27;97872;-30
2023/01/10 05:09:50;;;;;;;2.70;0.95;;;;;;;6.69;85.33;101613.59;5054831;27;97831;-29
2023/01/10 05:12:15;;;;;;;3.10;0.80;;;;;;;6.72;85.27;101626.97;5054706;27;96812;-29
2023/01/10 05:14:40;;;;;;;5.60;0.50;;;;;;;6.70;85.50;101619.88;5054665;27;97071;-29
2023/01/10 05:17:06;;;;;;;4.35;0.70;;;;;;;6.71;85.60;101625.19;5054612;27;100361;-29
2023/01/10 05:19:31;;;;;;;2.03;0.43;;;;;;;6.72;85.44;101629.69;5054828;27;98033;-30
2023/01/10 05:21:56;;;;;;;3.10;0.40;;;;;;;6.71;85.68;101627.91;5054523;27;96572;-29
2023/01/10 05:24:22;;;;;;;2.67;0.50;;;;;;;6.69;85.68;101632.44;5053841;27;96865;-30
2023/01/10 05:26:47;;;;;;;5.40;1.15;;;;;;;6.73;85.45;101638.63;5052918;27;99378;-30
2023/01/10 05:29:13;;;;;;;4.68;0.60;;;;;;;6.72;85.72;101643.13;5054467;27;98153;-30
2023/01/10 05:31:39;;;;;;;5.43;1.00;;;;;;;6.72;85.55;101648.53;5052967;27;96618;-32
2023/01/10 05:34:05;;;;;;;2.90;1.52;;;;;;;6.75;85.38;101650.22;5052848;27;96877;-30
2023/01/10 05:36:31;;;;;;;9.73;1.00;;;;;;;6.70;85.86;101655.75;5054351;27;97763;-30
2023/01/10 05:38:56;;;;;;;1.35;0.65;;;;;;;6.65;85.96;101655.03;5052848;27;100848;-29
2023/01/10 05:41:22;;;;;;;3.63;0.95;;;;;;;6.61;86.08;101647.09;5054477;27;96621;-30
2023/01/10 05:43:48;;;;;;;2.38;0.80;;;;;;;6.62;86.06;101652.41;5054727;27;96736;-30
2023/01/10 05:46:14;;;;;;;10.43;2.65;;;;;;;6.60;86.41;101667.72;5052682;27;100639;-30
2023/01/10 05:48:40;;;;;;;9.80;2.80;;;;;;;6.59;86.52;101669.56;5052416;27;101380;-29
2023/01/10 05:51:05;;;;;;;3.58;1.85;;;;;;;6.60;86.56;101673.13;5052324;27;97004;-29
2023/01/10 05:53:30;;;;;;;3.20;1.10;;;;;;;6.57;86.33;101668.72;5054244;27;96718;-29
2023/01/10 05:55:58;;;;;;;5.60;1.08;;;;;;;6.59;86.57;101671.38;5054236;27;97253;-29
2023/01/10 05:58:24;;;;;;;4.07;0.90;;;;;;;6.61;86.86;101676.72;5053900;27;97966;-29
2023/01/10 06:00:50;;;;;;;1.40;0.63;;;;;;;6.64;86.78;101682.00;5052676;27;96789;-30
2023/01/10 06:03:15;;;;;;;2.42;0.65;;;;;;;6.62;87.45;101683.84;5053699;27;96803;-30
2023/01/10 06:05:41;;;;;;;1.95;0.57;;;;;;;6.63;87.45;101688.31;5053834;27;97912;-29
2023/01/10 06:08:06;;;;;;;0.17;0.15;;;;;;;6.63;87.77;101689.19;5053951;27;99526;-29
2023/01/10 06:10:32;;;;;;;2.78;0.80;;;;;;;6.63;87.86;101691.00;5054238;27;96668;-29
2023/01/10 06:12:57;;;;;;;1.42;0.63;;;;;;;6.65;87.44;101692.72;5053516;27;103084;-30
2023/01/10 06:15:22;;;;;;;8.65;0.98;;;;;;;6.63;87.37;101689.19;5052976;27;101606;-29
2023/01/10 06:17:48;;;;;;;10.82;0.95;;;;;;;6.61;87.41;101674.03;5053331;27;99034;-30
2023/01/10 06:20:13;;;;;;;3.13;0.95;;;;;;;6.63;87.08;101669.47;5053505;27;96497;-29
2023/01/10 06:22:41;;;;;;;13.65;1.25;;;;;;;6.62;87.17;101684.72;5053768;27;96692;-30
2023/01/10 06:25:07;;;;;;;1.75;0.88;;;;;;;6.57;87.79;101692.06;5051992;27;101120;-30
2023/01/10 06:27:32;;;;;;;2.10;0.45;;;;;;;6.57;87.39;101700.13;5051368;27;102248;-29
2023/01/10 06:30:00;;;;;;;3.22;0.88;;;;;;;6.53;87.64;101703.84;5053373;27;101404;-29
2023/01/10 06:32:25;;;;;;;0.47;0.47;;;;;;;6.46;87.69;101696.88;5053696;27;96739;-29
2023/01/10 06:34:50;;;;;;;5.13;1.25;;;;;;;6.45;87.86;101705.91;5053420;27;97966;-30
2023/01/10 06:37:16;;;;;;;1.25;0.35;;;;;;;6.40;88.39;101702.47;5053090;27;102350;-29
2023/01/10 06:39:41;;;;;;;6.70;0.82;;;;;;;6.41;88.32;101717.69;5052850;27;96657;-29
2023/01/10 06:42:06;;;;;;;2.15;0.52;;;;;;;6.36;88.23;101718.72;5053415;27;96776;-29
2023/01/10 06:44:32;;;;;;;2.53;0.80;;;;;;;6.35;88.33;101713.38;5053180;27;97870;-29
2023/01/10 06:46:57;;;;;;;5.97;1.05;;;;;;;6.32;88.25;101722.44;5053291;27;97140;-29
2023/01/10 06:49:22;;;;;;;4.88;0.80;;;;;;;6.30;88.38;101726.97;5053061;27;104991;-29
2023/01/10 06:51:48;;;;;;;2.30;0.82;;;;;;;6.28;88.39;101739.56;5052955;27;96806;-29
2023/01/10 06:54:13;;;;;;;4.10;0.95;;;;;;;6.28;88.29;101752.16;5052602;27;105693;-30
2023/01/10 06:56:38;;;;;;;6.38;0.70;;;;;;;6.27;88.56;101743.22;5053506;27;97209;-30
2023/01/10 06:59:04;;;;;;;6.20;1.02;;;;;;;6.32;88.43;101753.84;5053276;27;96612;-29
2023/01/10 07:01:29;;;;;;;0.32;0.22;;;;;;;6.31;88.96;101761.00;5052600;27;96755;-29
2023/01/10 07:03:54;;;;;;;3.10;1.08;;;;;;;6.26;89.81;101759.38;5052059;27;99271;-29
2023/01/10 07:06:20;;;;;;;9.60;1.50;;;;;;;6.26;89.30;101771.03;5053058;27;97752;-29
2023/01/10 07:08:46;;;;;;;1.63;0.57;;;;;;;6.22;89.45;101777.44;5053178;27;96487;-29
2023/01/10 07:11:13;;;;;;;2.92;1.13;;;;;;;6.15;89.21;101778.53;5051420;27;96774;-29
2023/01/10 07:13:39;;;;;;;1.20;0.65;;;;;;;6.14;88.82;101776.75;5051260;27;100864;-29
2023/01/10 07:16:08;;;;;;;1.70;0.93;;;;;;;6.13;88.70;101791.16;5052577;27;97752;-29
2023/01/10 07:18:34;;;;;;;3.53;1.38;;;;;;;6.04;88.98;101786.88;5051438;27;96708;-29
2023/01/10 07:21:00;;;;;;;3.03;0.82;;;;;;;5.99;89.38;101793.34;5051650;27;96770;-29
2023/01/10 07:23:26;;;;;;;6.47;1.02;;;;;;;5.95;89.30;101797.91;5052433;27;98002;-30
2023/01/10 07:25:51;;;;;;;2.10;0.60;;;;;;;5.95;89.57;101788.00;5052400;27;98934;-29
2023/01/10 07:28:17;;;;;;;3.30;0.68;;;;;;;5.89;89.50;101780.09;5050381;27;97018;-30
2023/01/10 07:30:42;;;;;;;2.33;0.98;;;;;;;5.84;89.57;101790.09;5052884;27;96752;-29
2023/01/10 07:33:08;;;;;;;5.80;1.42;;;;;;;5.85;89.25;101797.22;5052644;27;97955;-31
2023/01/10 07:35:34;;;;;;;1.27;0.52;;;;;;;5.82;89.65;101801.81;5052581;27;97919;-29
2023/01/10 07:38:00;;;;;;;2.55;0.57;;;;;;;5.82;89.89;101818.81;5053054;27;96663;-30
2023/01/10 07:40:26;;;;;;;5.68;0.93;;;;;;;5.80;90.15;101799.16;5050957;27;96788;-29
2023/01/10 07:42:56;;;;;;;2.47;1.05;;;;;;;5.79;89.93;101812.63;5050569;27;100948;-29
2023/01/10 07:45:22;;;;;;;1.25;0.63;;;;;;;5.76;90.04;101805.53;5051412;27;100951;-29
2023/01/10 07:47:47;;;;;;;5.38;1.52;;;;;;;5.76;89.74;101802.84;5059085;27;96539;-29
2023/01/10 07:50:13;;;;;;;1.73;0.70;;;;;;;5.73;89.99;101798.44;5059369;27;96774;-29
2023/01/10 07:52:38;;;;;;;1.23;0.80;;;;;;;5.71;90.12;101807.47;5058332;27;99291;-29
2023/01/10 07:55:04;;;;;;;2.10;0.85;;;;;;;5.77;89.55;101809.09;5058977;27;97621;-29
2023/01/10 07:57:30;;;;;;;3.83;1.10;;;;;;;5.73;89.53;101805.63;5057601;27;96977;-29
2023/01/10 07:59:55;;;;;;;1.17;0.60;;;;;;;5.64;90.44;101811.22;5058852;27;106093;-30
2023/01/10 08:02:20;;;;;;;0.55;0.43;;;;;;;5.66;90.45;101804.03;5058650;27;105219;-29
2023/01/10 08:04:46;;;;;;;2.03;1.05;;;;;;;5.69;90.38;101817.38;5058509;27;99188;-29
2023/01/10 08:07:11;;;;;;;1.33;0.60;;;;;;;5.64;90.15;101804.03;5059099;27;96669;-32
2023/01/10 08:09:36;;;;;;;0.70;0.40;;;;;;;5.65;90.25;101811.19;5059358;27;99760;-29
2023/01/10 08:12:02;;;;;;;4.25;0.85;;;;;;;5.67;90.25;101804.00;5058727;27;97849;-29
2023/01/10 08:14:27;;;;;;;2.13;0.90;;;;;;;5.69;90.00;101806.63;5058328;27;99037;-29
2023/01/10 08:16:52;;;;;;;3.72;0.93;;;;;;;5.76;89.67;101805.53;5058528;27;96505;-29
2023/01/10 08:19:18;;;;;;;1.83;1.13;;;;;;;5.75;89.41;101803.78;5059166;27;96667;-29
2023/01/10 08:21:43;;;;;;;1.88;0.60;;;;;;;5.73;89.47;101805.63;5057997;27;99300;-29
2023/01/10 08:24:08;;;;;;;6.88;0.80;;;;;;;5.66;89.61;101795.94;5058722;27;97609;-30
2023/01/10 08:26:34;;;;;;;3.83;0.65;;;;;;;5.65;90.09;101800.44;5058240;27;98855;-30
2023/01/10 08:29:00;;;;;;;0.90;0.63;;;;;;;5.66;90.02;101799.50;5057301;27;96688;-29
2023/01/10 08:31:25;;;;;;;3.58;0.75;;;;;;;5.63;90.03;101807.66;5058580;27;98058;-30
2023/01/10 08:33:50;;;;;;;1.92;0.30;;;;;;;5.66;89.86;101802.19;5058955;27;97340;-29
2023/01/10 08:36:18;;;;;;;2.55;0.80;;;;;;;5.64;89.74;101805.84;5058489;27;96553;-30
2023/01/10 08:38:44;;;;;;;2.67;0.75;;;;;;;5.60;90.26;101809.53;5057298;27;96840;-30
2023/01/10 08:41:09;;;;;;;4.57;1.15;;;;;;;5.62;89.87;101810.38;5057694;27;99244;-29
2023/01/10 08:43:34;;;;;;;2.38;0.77;;;;;;;5.59;90.13;101799.72;5057878;27;98856;-29
2023/01/10 08:46:00;;;;;;;0.65;0.45;;;;;;;5.61;90.04;101801.44;5058365;27;98511;-29
2023/01/10 08:48:25;;;;;;;3.17;0.57;;;;;;;5.61;89.73;101788.00;5058102;27;105742;-29
2023/01/10 08:50:50;;;;;;;1.80;0.80;;;;;;;5.61;89.76;101789.81;5058142;27;98970;-30
2023/01/10 08:53:16;;;;;;;2.00;1.05;;;;;;;5.62;90.22;101794.25;5058465;27;97795;-30
2023/01/10 08:55:41;;;;;;;5.18;0.95;;;;;;;5.60;90.01;101782.66;5057933;27;101421;-29
2023/01/10 08:58:08;;;;;;;1.80;1.05;;;;;;;5.61;90.24;101788.00;5055417;27;96757;-29
2023/01/10 09:00:35;;;;;;;0.77;0.57;;;;;;;5.64;89.87;101785.22;5053475;27;100805;-30
2023/01/10 09:03:00;;;;;;;1.10;0.75;;;;;;;5.67;89.87;101793.25;5053293;27;100733;-31
2023/01/10 09:05:25;;;;;;;1.38;0.88;;;;;;;5.67;89.96;101787.88;5054399;27;97219;-29
2023/01/10 09:07:51;;;;;;;9.07;1.48;;;;;;;5.63;89.98;101791.53;5054682;27;96864;-29
2023/01/10 09:10:16;;;;;;;3.25;0.88;;;;;;;5.62;90.21;101791.56;5054572;27;99250;-29
2023/01/10 09:12:53;;;;;;;1.73;0.77;;;;;;;5.63;89.96;101799.59;5054492;27;102641;-29
2023/01/10 09:15:23;;;;;;;2.13;1.30;;;;;;;5.54;90.14;101779.22;5053333;27;96642;-30
2023/01/10 09:17:52;;;;;;;2.65;0.82;;;;;;;5.52;90.25;101778.38;5053266;27;97732;-30
2023/01/10 09:20:17;;;;;;;1.55;0.68;;;;;;;5.50;90.33;101777.50;5053163;27;100901;-31
2023/01/10 09:22:43;;;;;;;2.80;0.40;;;;;;;5.48;90.13;101771.31;5051391;27;97228;-32
2023/01/10 09:25:10;;;;;;;2.20;0.75;;;;;;;5.53;90.42;101779.28;5049785;27;97498;-50
2023/01/10 09:27:35;;;;;;;1.25;0.52;;;;;;;5.51;90.17;101790.03;5048591;27;97124;-32
2023/01/10 09:30:00;;;;;;;5.35;1.42;;;;;;;5.48;89.89;101787.44;5052169;27;97185;-29
2023/01/10 09:32:26;;;;;;;1.48;1.00;;;;;;;5.45;90.21;101773.19;5053811;27;97767;-33
2023/01/10 09:34:51;;;;;;;1.08;0.68;;;;;;;5.43;89.71;101775.03;5052817;27;96553;-32
2023/01/10 09:37:16;;;;;;;11.63;0.77;;;;;;;5.38;89.70;101769.78;5054239;27;96749;-29
2023/01/10 09:39:42;;;;;;;4.20;1.05;;;;;;;5.39;89.60;101787.69;5053478;27;99249;-29
2023/01/10 09:42:47;;;;;;;2.08;0.65;;;;;;;5.43;89.42;101788.47;5053260;27;97337;-30
2023/01/10 09:45:19;;;;;;;1.83;0.63;;;;;;;5.44;89.55;101791.13;5051932;27;97031;-34
2023/01/10 09:47:54;;;;;;;4.80;0.43;;;;;;;5.41;89.13;101785.84;5051034;27;97093;-29
2023/01/10 09:50:54;;;;;;;1.20;0.60;;;;;;;5.45;89.23;101789.31;5050090;27;101600;-30
2023/01/10 09:53:26;;;;;;;4.07;1.33;;;;;;;5.47;89.18;101777.59;5050302;27;100775;-29
2023/01/10 09:55:58;;;;;;;0.10;0.10;;;;;;;5.40;88.93;101769.75;5051298;27;96677;-31
2023/01/10 09:58:28;;;;;;;7.35;0.90;;;;;;;5.43;89.08;101773.22;5050696;27;96912;-30
2023/01/10 10:01:26;;;;;;;1.90;0.57;;;;;;;5.45;88.88;101779.44;5052083;27;101131;-31
2023/01/10 10:04:13;;;;;;;1.08;0.63;;;;;;;5.50;88.84;101780.19;5053762;27;98985;-29
2023/01/10 10:06:39;;;;;;;2.78;0.93;;;;;;;5.43;88.83;101769.66;5053667;27;96631;-28
2023/01/10 10:09:04;;;;;;;1.77;0.85;;;;;;;5.44;88.75;101771.44;5053300;27;96738;-29
2023/01/10 10:11:45;;;;;;;5.82;1.17;;;;;;;5.45;88.58;101766.00;5053644;27;99110;-29
2023/01/10 10:14:19;;;;;;;3.05;1.30;;;;;;;5.47;88.69;101761.47;5054229;27;97604;-30
2023/01/10 10:17:26;;;;;;;6.43;1.02;;;;;;;5.49;88.58;101767.72;5052367;27;96619;-29
2023/01/10 10:20:16;;;;;;;0.73;0.50;;;;;;;5.48;88.20;101755.22;5053684;27;96623;-28
2023/01/10 10:22:48;;;;;;;5.40;1.48;;;;;;;5.43;88.14;101764.28;5052930;27;97520;-28
2023/01/10 10:25:13;;;;;;;;;;;;;;;5.43;88.29;101759.78;5054093;27;97689;-30
2023/01/10 10:27:58;;;;;;;4.25;0.95;;;;;;;5.45;88.08;101759.75;5052927;27;96906;-28
2023/01/10 10:31:20;;;;;;;1.60;0.43;;;;;;;5.39;88.14;101752.75;5052132;27;97492;-30
2023/01/10 10:34:14;;;;;;;1.17;0.22;;;;;;;5.39;88.38;101750.06;4990490;28;101952;-29
2023/01/10 10:37:03;;;;;;;2.95;0.82;;;;;;;5.46;88.26;101740.06;5032894;27;98264;-28
2023/01/10 10:39:49;;;;;;;10.63;1.35;;;;;;;5.51;88.24;101739.00;5053300;27;96540;-28
2023/01/10 10:42:17;;;;;;;2.17;0.85;;;;;;;5.49;88.45;101730.09;5052093;27;96739;-29
2023/01/10 10:44:57;;;;;;;0.65;0.30;;;;;;;5.46;88.10;101721.25;5051676;27;101645;-31
2023/01/10 10:47:27;;;;;;;1.67;0.55;;;;;;;5.47;88.62;101718.50;5053054;27;99362;-29
2023/01/10 10:49:58;;;;;;;3.50;0.55;;;;;;;5.53;88.46;101706.72;5052636;27;96581;-29
2023/01/10 10:52:26;;;;;;;4.88;0.55;;;;;;;5.57;88.38;101699.44;5051974;27;96680;-28
2023/01/10 10:54:52;;;;;;;2.60;0.55;;;;;;;5.57;88.43;101699.44;5051353;27;100992;-29
2023/01/10 10:57:22;;;;;;;1.30;0.60;;;;;;;5.59;88.66;101701.16;5051463;27;101267;-28
2023/01/10 10:59:48;;;;;;;2.15;1.13;;;;;;;5.58;88.12;101702.09;5051675;27;97258;-28
2023/01/10 11:02:26;;;;;;;0.85;0.47;;;;;;;5.59;88.69;101689.53;5053039;27;96726;-28
2023/01/10 11:04:56;;;;;;;0.65;0.45;;;;;;;5.59;88.62;101693.09;5051286;27;100942;-29
2023/01/10 11:07:23;;;;;;;1.33;1.08;;;;;;;5.60;88.79;101685.91;5051631;27;100916;-29
2023/01/10 11:12:27;;;;;;;8.95;0.80;;;;;;;5.57;89.07;101680.63;5051095;27;96509;-28
2023/01/10 11:14:52;;;;;;;0.40;0.30;;;;;;;5.59;89.52;101682.34;5051018;27;100978;-30
2023/01/10 11:17:20;;;;;;;8.45;1.38;;;;;;;5.58;89.00;101677.00;5051342;27;100863;-29
2023/01/10 11:19:56;;;;;;;1.60;0.70;;;;;;;5.59;89.07;101676.09;5052604;27;96584;-29
2023/01/10 11:22:22;;;;;;;0.65;0.52;;;;;;;5.61;89.38;101679.63;5051642;27;96833;-29
2023/01/10 11:24:55;;;;;;;3.90;0.57;;;;;;;5.57;89.53;101668.06;5051222;27;100842;-29
2023/01/10 11:27:24;;;;;;;2.92;0.47;;;;;;;5.61;89.36;101667.06;5050863;27;99091;-29
2023/01/10 11:30:17;;;;;;;5.53;0.65;;;;;;;5.59;89.49;101658.16;5051255;27;96535;-29
2023/01/10 11:32:53;;;;;;;;;;;;;;;5.65;89.42;101655.31;5052197;27;96636;-30
2023/01/10 11:35:30;;;;;;;3.45;0.98;;;;;;;5.62;89.40;101644.63;5052614;27;97911;-29
2023/01/10 11:38:16;;;;;;;0.75;0.57;;;;;;;5.61;89.78;101652.75;5051058;27;101086;-28
2023/01/10 11:40:59;;;;;;;5.80;0.85;;;;;;;5.62;89.40;101644.63;5050512;27;97178;-30
2023/01/10 11:43:28;;;;;;;1.55;0.77;;;;;;;5.63;89.76;101645.53;5050762;27;96809;-30
2023/01/10 11:45:56;;;;;;;2.35;0.50;;;;;;;5.63;89.70;101630.28;5050965;27;100905;-29
2023/01/10 11:48:24;;;;;;;1.25;0.63;;;;;;;5.63;89.77;101630.28;5050824;27;100819;-29
2023/01/10 11:50:53;;;;;;;1.13;0.50;;;;;;;5.64;90.02;101620.41;5051106;27;96856;-29
2023/01/10 11:53:35;;;;;;;2.85;0.40;;;;;;;5.70;89.88;101614.88;5050548;27;96774;-28